Time;durP1;ratioP1;P1;durP2;ratioP2;P2;SDS_P1;SDS_P2;PMS_P1;PMS_P2;Temp;Humidity;BMP_temperature;BMP_pressure;BME280_temperature;BME280_humidity;BME280_pressure;Samples;Min_cycle;Max_cycle;Signal;HPM_P1;HPM_P2
2021/11/10 00:01:32;;;;;;;21.52;6.57;;;10.10;95.90;;;;;;5018952;28;20128;-88
2021/11/10 00:03:58;;;;;;;22.13;6.63;;;10.10;95.90;;;;;;5019028;28;20037;-90
2021/11/10 00:06:24;;;;;;;19.77;6.35;;;10.10;95.90;;;;;;5019671;28;20501;-88
2021/11/10 00:08:49;;;;;;;17.98;5.85;;;10.10;95.80;;;;;;5018548;28;20113;-89
2021/11/10 00:11:15;;;;;;;19.77;5.80;;;10.10;95.90;;;;;;5019327;28;20041;-88
2021/11/10 00:13:41;;;;;;;21.02;6.40;;;10.10;96.00;;;;;;5019538;28;20088;-89
2021/11/10 00:16:07;;;;;;;22.77;5.90;;;10.10;96.00;;;;;;5018985;28;20041;-88
2021/11/10 00:18:32;;;;;;;13.75;4.88;;;10.10;96.10;;;;;;5018589;28;20037;-89
2021/11/10 00:20:58;;;;;;;16.55;5.80;;;10.10;96.10;;;;;;5019043;28;20093;-89
2021/11/10 00:23:23;;;;;;;16.20;5.85;;;10.10;96.30;;;;;;5019077;28;20064;-90
2021/11/10 00:25:50;;;;;;;15.98;5.90;;;10.10;96.30;;;;;;5019156;28;20051;-90
2021/11/10 00:28:15;;;;;;;16.08;5.50;;;10.10;96.30;;;;;;5018233;28;20041;-88
2021/11/10 00:30:41;;;;;;;21.67;6.75;;;10.10;96.40;;;;;;5019374;28;20052;-89
2021/11/10 00:33:07;;;;;;;20.95;6.55;;;10.10;96.30;;;;;;5017958;28;20075;-89
2021/11/10 00:35:32;;;;;;;15.82;6.45;;;10.10;96.30;;;;;;5018469;28;20041;-89
2021/11/10 00:37:58;;;;;;;16.83;6.18;;;10.00;96.20;;;;;;5018570;28;20093;-89
2021/11/10 00:40:24;;;;;;;18.23;6.30;;;10.00;96.20;;;;;;5019231;28;20053;-91
2021/11/10 00:42:52;;;;;;;16.83;6.10;;;10.00;96.20;;;;;;5017874;28;20042;-88
2021/11/10 00:45:18;;;;;;;24.23;6.85;;;10.00;96.40;;;;;;5018812;28;20044;-89
2021/11/10 00:47:43;;;;;;;20.02;6.55;;;10.10;96.40;;;;;;5019012;28;20064;-88
2021/11/10 00:50:09;;;;;;;16.38;6.03;;;10.00;96.30;;;;;;5017625;28;20037;-89
2021/11/10 00:52:35;;;;;;;15.52;5.82;;;10.10;96.40;;;;;;5019035;28;20064;-89
2021/11/10 00:55:03;;;;;;;17.20;5.95;;;10.10;96.60;;;;;;5018445;28;20481;-89
2021/11/10 00:57:32;;;;;;;23.75;7.10;;;10.00;96.60;;;;;;5017531;28;20493;-89
2021/11/10 00:59:57;;;;;;;21.00;6.70;;;10.00;96.50;;;;;;5012990;28;20092;-89
2021/11/10 01:02:23;;;;;;;14.95;5.65;;;10.00;96.50;;;;;;5018640;28;20485;-89
2021/11/10 01:04:48;;;;;;;13.32;6.03;;;10.00;96.50;;;;;;5017432;28;20048;-89
2021/11/10 01:07:14;;;;;;;17.65;6.35;;;10.00;96.60;;;;;;5018373;28;20179;-89
2021/11/10 01:09:41;;;;;;;16.08;6.22;;;10.00;96.60;;;;;;5017879;28;20076;-89
2021/11/10 01:12:12;;;;;;;18.63;6.90;;;10.00;96.60;;;;;;5017634;28;20056;-89
2021/11/10 01:14:39;;;;;;;19.10;6.45;;;10.00;96.60;;;;;;5017921;28;20052;-88
2021/11/10 01:17:05;;;;;;;16.73;6.20;;;10.00;96.60;;;;;;5018043;28;20060;-89
2021/11/10 01:19:31;;;;;;;22.20;7.15;;;10.00;96.70;;;;;;5016636;28;20038;-89
2021/11/10 01:21:57;;;;;;;16.27;7.05;;;9.90;96.60;;;;;;5017631;28;20041;-89
2021/11/10 01:24:23;;;;;;;20.35;6.72;;;9.90;96.70;;;;;;5017884;28;20037;-88
2021/11/10 01:26:48;;;;;;;18.60;6.45;;;9.90;96.70;;;;;;5017332;28;20041;-88
2021/11/10 01:29:14;;;;;;;19.30;6.63;;;9.90;96.70;;;;;;5017143;28;20049;-90
2021/11/10 01:31:40;;;;;;;20.58;7.13;;;9.90;96.80;;;;;;5017121;28;20115;-89
2021/11/10 01:34:08;;;;;;;17.73;7.40;;;9.80;96.80;;;;;;5017859;28;20072;-89
2021/11/10 01:36:38;;;;;;;16.77;6.55;;;9.80;96.80;;;;;;5017611;28;20073;-88
2021/11/10 01:39:09;;;;;;;22.17;6.97;;;9.80;96.90;;;;;;5016432;28;20496;-88
2021/11/10 01:41:43;;;;;;;22.40;7.70;;;9.80;97.00;;;;;;5016719;28;20555;-88
2021/11/10 01:44:39;;;;;;;21.70;8.48;;;9.80;97.00;;;;;;5017286;28;20053;-88
2021/11/10 01:47:07;;;;;;;19.02;7.55;;;9.80;97.00;;;;;;4993463;28;20049;-88
2021/11/10 01:49:35;;;;;;;23.90;8.00;;;9.70;97.20;;;;;;5017217;28;20393;-88
2021/11/10 01:52:02;;;;;;;24.13;8.90;;;9.70;97.20;;;;;;5017275;28;20489;-88
2021/11/10 01:54:30;;;;;;;20.27;9.13;;;9.70;97.30;;;;;;5016395;28;20045;-87
2021/11/10 01:56:59;;;;;;;22.67;9.23;;;9.70;97.30;;;;;;5017249;28;20103;-88
2021/11/10 01:59:38;;;;;;;19.27;8.57;;;9.70;97.40;;;;;;5017120;28;20401;-87
2021/11/10 02:02:08;;;;;;;25.15;9.80;;;9.70;97.50;;;;;;5016581;28;20076;-89
2021/11/10 02:04:36;;;;;;;21.02;8.85;;;9.70;97.50;;;;;;5017064;28;20404;-88
2021/11/10 02:07:02;;;;;;;21.17;9.40;;;9.70;97.60;;;;;;5004336;28;20057;-88
2021/11/10 02:09:29;;;;;;;22.42;9.02;;;9.70;97.60;;;;;;5016145;28;20473;-88
2021/11/10 02:11:57;;;;;;;22.42;8.77;;;9.70;97.70;;;;;;5016621;28;20091;-88
2021/11/10 02:14:25;;;;;;;17.27;8.25;;;9.70;97.70;;;;;;5016637;28;20052;-87
2021/11/10 02:16:52;;;;;;;26.55;10.60;;;9.70;97.80;;;;;;5014352;28;20451;-87
2021/11/10 02:19:18;;;;;;;26.60;9.75;;;9.70;97.80;;;;;;5015958;28;20504;-88
2021/11/10 02:21:47;;;;;;;24.55;9.82;;;9.70;97.90;;;;;;5015928;28;20041;-89
2021/11/10 02:24:14;;;;;;;26.92;10.25;;;9.60;97.90;;;;;;5016403;28;20409;-89
2021/11/10 02:26:41;;;;;;;24.33;10.02;;;9.60;97.90;;;;;;5016250;28;20080;-89
2021/11/10 02:29:08;;;;;;;22.52;9.32;;;9.60;97.90;;;;;;5015635;28;20037;-89
2021/11/10 02:31:34;;;;;;;15.25;8.27;;;9.60;97.90;;;;;;5016137;28;20077;-89
2021/11/10 02:34:04;;;;;;;20.63;8.93;;;9.60;98.00;;;;;;5016130;28;20045;-89
2021/11/10 02:36:31;;;;;;;18.73;7.75;;;9.60;98.00;;;;;;5015494;28;20048;-88
2021/11/10 02:39:00;;;;;;;22.30;8.73;;;9.60;97.90;;;;;;5016062;28;20052;-89
2021/11/10 02:41:28;;;;;;;18.92;8.32;;;9.60;98.00;;;;;;5015990;28;20072;-89
2021/11/10 02:43:54;;;;;;;14.38;7.10;;;9.60;97.90;;;;;;5015780;28;20096;-89
2021/11/10 02:46:20;;;;;;;19.45;8.52;;;9.60;97.80;;;;;;5015908;28;20048;-89
2021/11/10 02:48:46;;;;;;;15.15;8.75;;;9.60;97.80;;;;;;5016544;28;20045;-89
2021/11/10 02:51:11;;;;;;;16.67;7.70;;;9.60;97.80;;;;;;5015469;28;20125;-89
2021/11/10 02:53:37;;;;;;;15.23;7.90;;;9.60;97.80;;;;;;5016587;28;20054;-89
2021/11/10 02:56:03;;;;;;;14.80;7.90;;;9.60;97.80;;;;;;5015498;28;20044;-89
2021/11/10 02:58:32;;;;;;;21.85;8.80;;;9.60;97.70;;;;;;5015955;28;20049;-88
2021/11/10 03:00:58;;;;;;;16.05;8.18;;;9.60;97.70;;;;;;5015666;28;20041;-89
2021/11/10 03:03:24;;;;;;;17.95;8.25;;;9.60;97.70;;;;;;5015578;28;20043;-88
2021/11/10 03:05:51;;;;;;;15.55;7.45;;;9.60;97.70;;;;;;5014999;28;20045;-89
2021/11/10 03:08:20;;;;;;;14.32;7.30;;;9.60;97.70;;;;;;5015806;28;20049;-88
2021/11/10 03:10:46;;;;;;;14.10;7.50;;;9.60;98.00;;;;;;5015457;28;20045;-90
2021/11/10 03:13:13;;;;;;;18.65;7.72;;;9.60;97.70;;;;;;5015716;28;20042;-89
2021/11/10 03:15:40;;;;;;;14.10;7.47;;;9.60;97.80;;;;;;5016108;28;20049;-89
2021/11/10 03:18:06;;;;;;;15.25;7.68;;;9.60;97.70;;;;;;5001041;28;20495;-89
2021/11/10 03:20:32;;;;;;;14.52;7.53;;;9.60;97.70;;;;;;5015855;28;20042;-90
2021/11/10 03:22:59;;;;;;;14.13;7.40;;;9.70;97.70;;;;;;5015436;28;20044;-90
2021/11/10 03:25:25;;;;;;;13.48;7.35;;;9.60;97.70;;;;;;5015148;28;20072;-89
2021/11/10 03:27:51;;;;;;;14.15;7.13;;;9.60;97.70;;;;;;5016375;28;20115;-89
2021/11/10 03:30:18;;;;;;;14.98;7.38;;;9.60;97.70;;;;;;5015746;28;20049;-89
2021/11/10 03:32:45;;;;;;;14.95;7.05;;;9.60;97.70;;;;;;5014711;28;20493;-89
2021/11/10 03:35:11;;;;;;;12.38;6.70;;;9.60;97.70;;;;;;5016064;28;20505;-88
2021/11/10 03:37:37;;;;;;;13.00;6.97;;;9.60;97.60;;;;;;5015522;28;20136;-89
2021/11/10 03:40:04;;;;;;;13.27;8.10;;;9.60;97.50;;;;;;5015051;28;20497;-89
2021/11/10 03:42:30;;;;;;;14.27;7.35;;;9.60;97.50;;;;;;5015771;28;20136;-90
2021/11/10 03:44:55;;;;;;;17.83;8.38;;;9.60;97.50;;;;;;5015554;28;20034;-91
2021/11/10 03:47:21;;;;;;;12.32;6.82;;;9.60;97.60;;;;;;5014245;28;20397;-89
2021/11/10 03:49:47;;;;;;;18.02;7.43;;;9.60;97.50;;;;;;5016102;28;20443;-90
2021/11/10 03:52:15;;;;;;;15.07;7.38;;;9.60;97.50;;;;;;5014444;28;20092;-90
2021/11/10 03:54:42;;;;;;;13.15;7.43;;;9.60;97.50;;;;;;5015862;28;20045;-89
2021/11/10 03:57:08;;;;;;;16.98;7.45;;;9.60;97.50;;;;;;5015505;28;20050;-89
2021/11/10 03:59:34;;;;;;;12.77;7.15;;;9.60;97.50;;;;;;5015264;28;20200;-89
2021/11/10 04:02:00;;;;;;;13.35;7.85;;;9.60;97.50;;;;;;5015478;28;20132;-89
2021/11/10 04:04:25;;;;;;;12.73;7.05;;;9.60;97.50;;;;;;5015678;28;20041;-90
2021/11/10 04:06:51;;;;;;;14.98;7.95;;;9.60;97.60;;;;;;5014420;28;20063;-90
2021/11/10 04:09:17;;;;;;;14.75;7.35;;;9.60;97.50;;;;;;5015242;28;20149;-90
2021/11/10 04:11:42;;;;;;;13.70;7.30;;;9.70;97.50;;;;;;5015861;28;20489;-89
2021/11/10 04:14:08;;;;;;;14.10;7.90;;;9.70;97.50;;;;;;5014998;28;20087;-91
2021/11/10 04:16:34;;;;;;;20.90;8.40;;;9.60;97.60;;;;;;5015719;28;20068;-89
2021/11/10 04:18:59;;;;;;;18.90;7.88;;;9.60;97.50;;;;;;5014929;28;20041;-89
2021/11/10 04:21:26;;;;;;;14.13;7.63;;;9.70;97.50;;;;;;5014799;28;20099;-89
2021/11/10 04:23:53;;;;;;;11.90;7.00;;;9.70;97.50;;;;;;5015487;28;20108;-90
2021/11/10 04:26:20;;;;;;;22.98;8.30;;;9.70;97.40;;;;;;5014939;28;20513;-89
2021/11/10 04:28:46;;;;;;;19.73;7.85;;;9.70;97.40;;;;;;5014683;28;20045;-90
2021/11/10 04:31:12;;;;;;;11.57;6.97;;;9.70;97.30;;;;;;5015150;28;20044;-89
2021/11/10 04:33:38;;;;;;;14.30;6.95;;;9.70;97.30;;;;;;5018618;28;20098;-89
2021/11/10 04:36:05;;;;;;;24.98;7.80;;;9.70;97.30;;;;;;5017880;28;20041;-90
2021/11/10 04:38:31;;;;;;;15.48;7.20;;;9.70;97.30;;;;;;5018905;28;20037;-89
2021/11/10 04:40:59;;;;;;;15.80;6.82;;;9.70;97.30;;;;;;5018356;28;20038;-90
2021/11/10 04:43:25;;;;;;;19.75;7.25;;;9.70;97.30;;;;;;5017523;28;20056;-89
2021/11/10 04:46:04;;;;;;;13.52;7.03;;;9.70;97.20;;;;;;5018911;28;20048;-90
2021/11/10 04:48:30;;;;;;;17.42;6.75;;;9.70;97.20;;;;;;5018279;28;20045;-88
2021/11/10 04:50:56;;;;;;;15.88;6.97;;;9.70;97.20;;;;;;5018971;28;20099;-89
2021/11/10 04:53:21;;;;;;;15.82;6.70;;;9.70;97.20;;;;;;5017904;28;20079;-88
2021/11/10 04:55:47;;;;;;;15.10;6.78;;;9.70;97.20;;;;;;5018229;28;20522;-89
2021/11/10 04:58:13;;;;;;;14.75;6.80;;;9.70;97.20;;;;;;5017792;28;20140;-89
2021/11/10 05:00:39;;;;;;;18.48;7.07;;;9.70;97.20;;;;;;5017571;28;20072;-89
2021/11/10 05:03:08;;;;;;;19.02;7.28;;;9.60;97.10;;;;;;5016936;28;20045;-90
2021/11/10 05:05:33;;;;;;;21.73;7.65;;;9.70;97.10;;;;;;5018496;28;20049;-89
2021/11/10 05:07:59;;;;;;;18.10;7.10;;;9.70;97.20;;;;;;5017842;28;20099;-88
2021/11/10 05:10:25;;;;;;;16.27;7.43;;;9.70;97.10;;;;;;5017728;28;20121;-89
2021/11/10 05:12:50;;;;;;;16.50;7.50;;;9.70;97.10;;;;;;5018565;28;20033;-89
2021/11/10 05:15:16;;;;;;;17.10;7.63;;;9.70;97.10;;;;;;5016347;28;20042;-89
2021/11/10 05:17:42;;;;;;;11.90;7.07;;;9.70;97.10;;;;;;5014126;28;20048;-89
2021/11/10 05:20:08;;;;;;;16.90;8.45;;;9.70;97.10;;;;;;5016926;28;20045;-88
2021/11/10 05:22:33;;;;;;;15.93;8.07;;;9.70;97.20;;;;;;5017948;28;20642;-89
2021/11/10 05:24:59;;;;;;;16.65;7.43;;;9.70;97.10;;;;;;5017908;28;20056;-89
2021/11/10 05:27:25;;;;;;;20.73;8.65;;;9.70;97.10;;;;;;5016819;28;20037;-89
2021/11/10 05:29:50;;;;;;;14.05;7.75;;;9.70;97.10;;;;;;5017593;28;20104;-86
2021/11/10 05:32:16;;;;;;;14.57;8.18;;;9.70;97.10;;;;;;5016174;28;20053;-87
2021/11/10 05:34:42;;;;;;;17.48;8.45;;;9.60;97.50;;;;;;5017336;28;20116;-87
2021/11/10 05:37:08;;;;;;;12.50;6.93;;;9.70;97.20;;;;;;5015151;28;20046;-86
2021/11/10 05:39:33;;;;;;;16.48;7.78;;;9.70;97.70;;;;;;5011207;28;20092;-96
2021/11/10 05:41:59;;;;;;;17.60;8.95;;;9.60;97.30;;;;;;5035130;28;20132;-96
2021/11/10 05:48:15;;;;;;;16.52;8.88;;;9.70;97.30;;;;;;5125061;23;20050;-95
2021/11/10 05:50:42;;;;;;;18.70;9.02;;;9.60;97.10;;;;;;5013970;28;20064;-89
2021/11/10 05:53:07;;;;;;;12.95;8.07;;;9.60;97.20;;;;;;5016471;28;20120;-89
2021/11/10 05:55:51;;;;;;;15.52;8.50;;;9.60;97.30;;;;;;5018620;28;20073;-93
2021/11/10 05:58:32;;;;;;;16.63;9.48;;;9.60;97.30;;;;;;5004731;28;20045;-92
2021/11/10 06:01:28;;;;;;;17.33;10.43;;;9.60;97.30;;;;;;5015267;28;20064;-96
2021/11/10 06:03:55;;;;;;;21.15;11.27;;;9.60;97.30;;;;;;5000905;28;20054;-88
2021/11/10 06:06:22;;;;;;;14.32;8.10;;;9.60;97.30;;;;;;4998199;28;20038;-88
2021/11/10 06:08:48;;;;;;;15.77;9.30;;;9.60;97.30;;;;;;5015956;28;20033;-88
2021/11/10 06:11:13;;;;;;;19.98;11.00;;;9.60;97.30;;;;;;5017097;28;20037;-88
2021/11/10 06:13:40;;;;;;;17.23;9.52;;;9.60;97.30;;;;;;5016494;28;20103;-88
2021/11/10 06:16:07;;;;;;;17.73;9.70;;;9.60;97.30;;;;;;5016995;28;20381;-88
2021/11/10 06:18:33;;;;;;;15.93;8.85;;;9.60;97.30;;;;;;5016948;28;20103;-88
2021/11/10 06:21:00;;;;;;;13.80;8.77;;;9.60;97.30;;;;;;5016598;28;20119;-87
2021/11/10 06:23:26;;;;;;;20.88;10.20;;;9.60;97.30;;;;;;5017136;28;20394;-88
2021/11/10 06:25:52;;;;;;;16.88;10.40;;;9.60;97.30;;;;;;5016808;28;20041;-88
2021/11/10 06:28:17;;;;;;;17.67;10.68;;;9.60;97.30;;;;;;5016077;28;20398;-88
2021/11/10 06:30:43;;;;;;;15.98;10.20;;;9.60;97.30;;;;;;5016618;28;20045;-88
2021/11/10 06:33:08;;;;;;;22.45;10.35;;;9.60;97.30;;;;;;5016539;28;20045;-88
2021/11/10 06:35:34;;;;;;;18.52;10.45;;;9.60;97.30;;;;;;5015902;28;20049;-88
2021/11/10 06:38:00;;;;;;;19.88;10.52;;;9.50;97.10;;;;;;5016378;28;20034;-88
2021/11/10 06:40:26;;;;;;;18.73;9.68;;;9.50;97.20;;;;;;5017012;28;20049;-87
2021/11/10 06:42:51;;;;;;;19.67;10.43;;;9.50;97.20;;;;;;5015787;28;20056;-88
2021/11/10 06:45:17;;;;;;;16.17;9.60;;;9.50;97.30;;;;;;5015816;28;20052;-88
2021/11/10 06:47:43;;;;;;;17.58;10.45;;;9.50;97.30;;;;;;5016473;28;20559;-88
2021/11/10 06:50:09;;;;;;;13.52;9.13;;;9.50;97.30;;;;;;5015424;28;20037;-87
2021/11/10 06:52:35;;;;;;;15.68;9.45;;;9.50;97.30;;;;;;5016836;28;20136;-88
2021/11/10 06:55:01;;;;;;;19.27;10.93;;;9.50;97.40;;;;;;5015487;28;20044;-87
2021/11/10 06:57:27;;;;;;;16.58;9.50;;;9.50;97.30;;;;;;5016078;28;20045;-87
2021/11/10 06:59:52;;;;;;;14.48;9.38;;;9.50;97.30;;;;;;5016137;28;20049;-88
2021/11/10 07:02:18;;;;;;;18.38;10.10;;;9.50;97.40;;;;;;5015402;28;20436;-88
2021/11/10 07:04:44;;;;;;;21.48;10.98;;;9.50;97.40;;;;;;5016341;28;20495;-88
2021/11/10 07:07:10;;;;;;;15.88;9.75;;;9.50;97.30;;;;;;5015867;28;20037;-87
2021/11/10 07:09:36;;;;;;;19.33;11.00;;;9.50;97.30;;;;;;5015284;28;20133;-88
2021/11/10 07:12:02;;;;;;;17.40;10.35;;;9.50;97.60;;;;;;5016012;28;20048;-88
2021/11/10 07:14:27;;;;;;;15.02;9.55;;;9.40;97.30;;;;;;5016315;28;20056;-88
2021/11/10 07:16:54;;;;;;;16.35;9.80;;;9.50;97.40;;;;;;5015743;28;20095;-88
2021/11/10 07:19:20;;;;;;;15.40;10.35;;;9.40;97.50;;;;;;5016062;28;20061;-87
2021/11/10 07:21:47;;;;;;;17.27;10.60;;;9.40;97.50;;;;;;5016209;28;20041;-88
2021/11/10 07:24:13;;;;;;;19.63;10.60;;;9.40;97.60;;;;;;5014733;28;20539;-87
2021/11/10 07:26:38;;;;;;;16.52;10.43;;;9.40;97.50;;;;;;5016297;28;20041;-88
2021/11/10 07:29:05;;;;;;;15.50;9.60;;;9.40;97.30;;;;;;5015515;28;20033;-88
2021/11/10 07:31:30;;;;;;;17.40;9.73;;;9.40;97.30;;;;;;5014838;28;20084;-87
2021/11/10 07:33:59;;;;;;;22.90;10.65;;;9.40;97.30;;;;;;5015691;28;20072;-88
2021/11/10 07:36:25;;;;;;;17.60;10.90;;;9.40;97.30;;;;;;5016046;28;20052;-88
2021/11/10 07:38:51;;;;;;;19.95;11.00;;;9.40;97.30;;;;;;5015485;28;20107;-88
2021/11/10 07:41:17;;;;;;;17.35;10.10;;;9.40;97.20;;;;;;5015527;28;20485;-88
2021/11/10 07:43:44;;;;;;;18.25;11.05;;;9.40;97.20;;;;;;5015402;28;20053;-88
2021/11/10 07:46:15;;;;;;;16.75;10.60;;;9.40;97.30;;;;;;5014671;28;20046;-88
2021/11/10 07:48:42;;;;;;;16.67;9.60;;;9.50;97.30;;;;;;5015962;28;20565;-87
2021/11/10 07:51:08;;;;;;;20.60;10.75;;;9.50;97.30;;;;;;5014877;28;20071;-88
2021/11/10 07:53:35;;;;;;;22.15;11.25;;;9.50;97.30;;;;;;5014895;28;20080;-86
2021/11/10 07:56:01;;;;;;;22.77;11.55;;;9.40;97.20;;;;;;5015253;28;20406;-88
2021/11/10 07:58:27;;;;;;;19.33;11.20;;;9.50;97.20;;;;;;5015076;28;20378;-88
2021/11/10 08:00:52;;;;;;;19.05;10.48;;;9.50;97.30;;;;;;5011817;28;20053;-87
2021/11/10 08:03:18;;;;;;;21.17;11.50;;;9.50;97.30;;;;;;5009179;28;20037;-89
2021/11/10 08:05:44;;;;;;;20.88;10.77;;;9.50;97.30;;;;;;5015065;28;20597;-88
2021/11/10 08:08:09;;;;;;;17.20;10.10;;;9.50;97.20;;;;;;5018536;28;20559;-88
2021/11/10 08:10:35;;;;;;;18.98;11.15;;;9.50;97.30;;;;;;5016050;28;20045;-88
2021/11/10 08:13:01;;;;;;;21.02;11.07;;;9.50;97.30;;;;;;5017842;28;20350;-87
2021/11/10 08:15:27;;;;;;;18.27;10.38;;;9.50;97.30;;;;;;5019306;28;20045;-87
2021/11/10 08:17:52;;;;;;;19.65;10.93;;;9.50;97.30;;;;;;5019343;28;20080;-87
2021/11/10 08:20:18;;;;;;;20.73;12.00;;;9.50;97.30;;;;;;5017945;28;20068;-88
2021/11/10 08:22:46;;;;;;;21.25;10.98;;;9.50;97.60;;;;;;5018886;28;20440;-88
2021/11/10 08:25:13;;;;;;;21.92;10.73;;;9.60;97.30;;;;;;5019196;28;20417;-88
2021/11/10 08:27:40;;;;;;;19.30;10.68;;;9.50;97.30;;;;;;5018575;28;20403;-88
2021/11/10 08:30:13;;;;;;;17.90;10.32;;;9.60;97.30;;;;;;5018737;28;20038;-88
2021/11/10 08:32:40;;;;;;;19.98;10.43;;;9.60;97.30;;;;;;5019233;28;20041;-89
2021/11/10 08:35:07;;;;;;;17.88;10.45;;;9.60;97.30;;;;;;5017917;28;20052;-87
2021/11/10 08:37:33;;;;;;;25.67;11.00;;;9.60;97.40;;;;;;5018072;28;20037;-87
2021/11/10 08:39:59;;;;;;;18.05;10.65;;;9.60;97.30;;;;;;5014136;28;20079;-87
2021/11/10 08:42:32;;;;;;;22.15;11.13;;;9.60;97.30;;;;;;5016989;28;20128;-86
2021/11/10 08:45:06;;;;;;;23.25;11.02;;;9.70;97.30;;;;;;5017545;28;20164;-86
2021/11/10 08:47:31;;;;;;;25.30;10.35;;;9.70;97.30;;;;;;5018339;28;20053;-86
2021/11/10 08:49:59;;;;;;;23.25;11.13;;;9.70;97.20;;;;;;5016761;28;20382;-87
2021/11/10 08:52:27;;;;;;;30.85;11.52;;;9.70;97.20;;;;;;5018123;28;20041;-87
2021/11/10 08:54:52;;;;;;;23.30;11.10;;;9.80;97.20;;;;;;5017537;28;20060;-87
2021/11/10 08:57:18;;;;;;;20.00;10.27;;;9.80;97.10;;;;;;5018036;28;20045;-86
2021/11/10 08:59:46;;;;;;;21.40;10.82;;;9.80;97.20;;;;;;5017962;28;20100;-87
2021/11/10 09:02:12;;;;;;;21.20;10.32;;;9.80;97.10;;;;;;5015237;28;20048;-87
2021/11/10 09:04:37;;;;;;;21.60;10.43;;;9.90;97.10;;;;;;5017750;28;20124;-87
2021/11/10 09:07:04;;;;;;;17.92;9.88;;;9.90;97.00;;;;;;5016281;28;20041;-88
2021/11/10 09:09:30;;;;;;;17.55;10.13;;;9.90;97.00;;;;;;5015935;28;20049;-87
2021/11/10 09:11:55;;;;;;;18.60;9.77;;;9.90;97.00;;;;;;5014565;28;20034;-87
2021/11/10 09:14:21;;;;;;;18.05;9.82;;;9.90;97.00;;;;;;5014395;28;20049;-93
2021/11/10 09:21:21;;;;;;;22.00;10.50;;;10.00;96.90;;;;;;4929469;29;20052;-93
2021/11/10 09:35:16;;;;;;;20.98;9.95;;;10.00;96.60;;;;;;5655571;23;20659;-90
2021/11/10 09:38:57;;;;;;;21.08;10.40;;;10.00;96.60;;;;;;5034817;23;20501;-89
2021/11/10 09:41:23;;;;;;;19.17;9.30;;;10.00;96.50;;;;;;5005941;28;20057;-90
2021/11/10 09:43:54;;;;;;;21.52;9.70;;;10.00;96.60;;;;;;5000078;28;20045;-89
2021/11/10 09:46:31;;;;;;;25.42;10.10;;;10.00;96.60;;;;;;5017985;23;20053;-90
2021/11/10 09:48:58;;;;;;;19.50;10.10;;;10.00;96.50;;;;;;5004471;28;20137;-86
2021/11/10 09:51:24;;;;;;;24.13;10.75;;;10.00;96.50;;;;;;4996839;28;20053;-86
2021/11/10 09:53:51;;;;;;;21.45;9.65;;;10.10;96.40;;;;;;4997851;28;20049;-85
2021/11/10 09:56:19;;;;;;;25.25;9.85;;;10.00;96.30;;;;;;4997629;28;20108;-85
2021/11/10 09:58:47;;;;;;;22.42;9.38;;;10.10;96.20;;;;;;4997098;28;20052;-86
2021/11/10 10:01:13;;;;;;;25.17;9.85;;;10.10;96.20;;;;;;4997645;28;20045;-85
2021/11/10 10:03:39;;;;;;;21.00;10.18;;;10.10;96.20;;;;;;4997290;28;20052;-85
2021/11/10 10:06:05;;;;;;;23.02;9.88;;;10.10;96.30;;;;;;4996571;28;20033;-86
2021/11/10 10:08:31;;;;;;;27.27;10.52;;;10.10;96.30;;;;;;4997556;28;20103;-85
2021/11/10 10:10:56;;;;;;;25.25;10.82;;;10.20;96.10;;;;;;4997040;28;20409;-85
2021/11/10 10:13:22;;;;;;;25.77;10.52;;;10.20;96.00;;;;;;4996634;28;20073;-85
2021/11/10 10:15:49;;;;;;;22.83;10.35;;;10.20;95.90;;;;;;4997492;28;20046;-86
2021/11/10 10:18:25;;;;;;;23.23;9.98;;;10.20;95.80;;;;;;4997263;28;20042;-86
2021/11/10 10:21:00;;;;;;;23.70;10.73;;;10.20;95.80;;;;;;4996733;28;20056;-85
2021/11/10 10:23:30;;;;;;;23.92;10.30;;;10.20;95.80;;;;;;4997274;28;20409;-86
2021/11/10 10:26:06;;;;;;;29.30;10.52;;;10.20;95.90;;;;;;4996888;28;20044;-86
2021/11/10 10:28:35;;;;;;;24.35;10.27;;;10.20;95.70;;;;;;4997401;28;20052;-85
2021/11/10 10:31:07;;;;;;;27.08;10.40;;;10.20;95.70;;;;;;4996678;28;20045;-85
2021/11/10 10:33:44;;;;;;;25.90;10.40;;;10.30;95.70;;;;;;4996343;28;20092;-86
2021/11/10 10:36:13;;;;;;;27.83;9.98;;;10.30;95.60;;;;;;4996610;28;20137;-85
2021/11/10 10:38:48;;;;;;;22.77;10.13;;;10.30;95.80;;;;;;4997247;28;20049;-86
2021/11/10 10:41:17;;;;;;;26.83;10.48;;;10.30;95.70;;;;;;4995970;28;20096;-85
2021/11/10 10:43:48;;;;;;;23.65;10.02;;;10.30;95.70;;;;;;4996893;28;20077;-86
2021/11/10 10:46:15;;;;;;;25.67;9.57;;;10.30;95.60;;;;;;4996517;28;20054;-85
2021/11/10 10:48:41;;;;;;;28.58;9.82;;;10.30;95.70;;;;;;4996426;28;20148;-85
2021/11/10 10:51:13;;;;;;;23.25;9.82;;;10.30;95.70;;;;;;4996417;28;20145;-86
2021/11/10 10:53:50;;;;;;;19.98;9.95;;;10.30;95.60;;;;;;4996705;28;20072;-85
2021/11/10 10:56:25;;;;;;;26.17;9.82;;;10.30;95.60;;;;;;4995854;28;20549;-85
2021/11/10 10:58:56;;;;;;;27.45;9.70;;;10.30;95.40;;;;;;4996905;28;20522;-86
2021/11/10 11:01:26;;;;;;;19.63;8.98;;;10.30;95.30;;;;;;4996037;28;20048;-86
2021/11/10 11:04:00;;;;;;;27.67;9.85;;;10.30;95.40;;;;;;4996590;28;20049;-85
2021/11/10 11:06:31;;;;;;;24.83;10.07;;;10.30;95.60;;;;;;4996434;28;20038;-86
2021/11/10 11:08:58;;;;;;;25.52;9.82;;;10.30;95.40;;;;;;4995765;28;20045;-86
2021/11/10 11:11:38;;;;;;;26.83;9.82;;;10.30;95.60;;;;;;4996118;28;20049;-86
2021/11/10 11:14:08;;;;;;;23.80;10.45;;;10.30;95.60;;;;;;4996430;28;20050;-85
2021/11/10 11:16:41;;;;;;;25.45;10.10;;;10.30;95.50;;;;;;4995927;28;20406;-86
2021/11/10 11:19:19;;;;;;;23.90;9.98;;;10.30;95.40;;;;;;4996941;28;20057;-85
2021/11/10 11:21:50;;;;;;;24.80;10.35;;;10.40;95.50;;;;;;4996401;28;20034;-85
2021/11/10 11:24:42;;;;;;;25.67;10.15;;;10.40;95.50;;;;;;4995752;28;20058;-85
2021/11/10 11:27:27;;;;;;;23.48;9.95;;;10.40;95.30;;;;;;4996614;28;20482;-86
2021/11/10 11:29:59;;;;;;;22.50;9.57;;;10.30;95.20;;;;;;4995904;28;20037;-86
2021/11/10 11:32:35;;;;;;;25.05;9.82;;;10.40;95.40;;;;;;4996639;28;20042;-85
2021/11/10 11:35:08;;;;;;;22.98;10.10;;;10.40;95.30;;;;;;4996210;28;20042;-85
2021/11/10 11:37:35;;;;;;;24.25;10.27;;;10.40;95.20;;;;;;4996040;28;20397;-85
2021/11/10 11:40:03;;;;;;;25.33;10.05;;;10.40;95.20;;;;;;4996110;28;20137;-85
2021/11/10 11:42:29;;;;;;;24.38;9.45;;;10.40;95.10;;;;;;4999962;28;20137;-85
2021/11/10 11:44:55;;;;;;;22.08;9.93;;;10.40;95.20;;;;;;4999176;28;20053;-86
2021/11/10 11:47:21;;;;;;;26.80;10.35;;;10.40;95.30;;;;;;5000362;28;20046;-86
2021/11/10 11:49:49;;;;;;;24.88;9.43;;;10.40;95.30;;;;;;4999937;28;20572;-86
2021/11/10 11:52:17;;;;;;;21.27;9.93;;;10.40;95.20;;;;;;4999242;28;20397;-85
2021/11/10 11:54:45;;;;;;;25.05;9.70;;;10.50;95.30;;;;;;5000293;28;20057;-85
2021/11/10 11:57:22;;;;;;;26.17;9.90;;;10.50;95.30;;;;;;4999793;28;20050;-84
2021/11/10 11:59:54;;;;;;;26.38;9.73;;;10.50;95.20;;;;;;4999332;28;20125;-85
2021/11/10 12:02:22;;;;;;;26.50;9.65;;;10.50;95.20;;;;;;4999547;28;20042;-85
2021/11/10 12:04:47;;;;;;;28.15;11.02;;;10.50;95.10;;;;;;4999001;28;20045;-86
2021/11/10 12:07:39;;;;;;;22.33;9.82;;;10.50;95.00;;;;;;4999275;28;20053;-85
2021/11/10 12:10:23;;;;;;;23.17;9.52;;;10.50;95.00;;;;;;4999745;28;20073;-85
2021/11/10 12:13:21;;;;;;;24.35;10.32;;;10.50;95.20;;;;;;4999305;28;20445;-85
2021/11/10 12:16:07;;;;;;;26.02;11.00;;;10.50;95.10;;;;;;5000100;28;20057;-85
2021/11/10 12:18:48;;;;;;;22.33;9.90;;;10.50;95.10;;;;;;4999769;28;20105;-85
2021/11/10 12:21:19;;;;;;;25.98;11.35;;;10.50;95.20;;;;;;4999142;28;20132;-86
2021/11/10 12:24:05;;;;;;;19.70;10.07;;;10.60;95.40;;;;;;4999567;28;20095;-85
2021/11/10 12:26:30;;;;;;;16.27;9.18;;;10.60;95.50;;;;;;4998785;28;20045;-85
2021/11/10 12:28:58;;;;;;;40.70;16.73;;;10.60;95.60;;;;;;4999303;28;20108;-85
2021/11/10 12:31:32;;;;;;;20.50;10.63;;;10.70;95.50;;;;;;4999245;28;20132;-85
2021/11/10 12:33:59;;;;;;;25.60;11.27;;;10.60;95.40;;;;;;4998453;28;20489;-85
2021/11/10 12:36:50;;;;;;;27.38;10.90;;;10.70;95.50;;;;;;4999448;28;20046;-85
2021/11/10 12:39:34;;;;;;;27.55;11.65;;;10.70;95.20;;;;;;4998835;28;20057;-85
2021/11/10 12:42:02;;;;;;;26.67;11.52;;;10.70;95.40;;;;;;4998179;28;20061;-86
2021/11/10 12:44:37;;;;;;;24.63;10.23;;;10.70;95.30;;;;;;4998976;28;20033;-85
2021/11/10 12:47:03;;;;;;;31.23;12.07;;;10.70;95.30;;;;;;4997988;28;20123;-86
2021/11/10 12:49:30;;;;;;;21.45;9.25;;;10.70;95.40;;;;;;4998855;28;20402;-85
2021/11/10 12:52:13;;;;;;;24.90;10.23;;;10.70;95.40;;;;;;4999286;28;20046;-84
2021/11/10 12:54:42;;;;;;;28.40;10.98;;;10.70;95.30;;;;;;4998851;28;20037;-85
2021/11/10 12:57:12;;;;;;;23.20;10.55;;;10.70;95.40;;;;;;4998793;28;20046;-88
2021/11/10 12:59:46;;;;;;;23.83;10.48;;;10.80;95.50;;;;;;4999832;28;20096;-89
2021/11/10 13:02:13;;;;;;;;;;;10.80;95.50;;;;;;4998821;28;20052;-88
2021/11/10 13:04:43;;;;;;;22.98;9.60;;;10.70;95.30;;;;;;4999147;28;19975;-90
2021/11/10 13:07:16;;;;;;;19.65;9.20;;;10.70;95.60;;;;;;4998803;28;20061;-88